Time;durP1;ratioP1;P1;durP2;ratioP2;P2;SDS_P1;SDS_P2;PMS_P1;PMS_P2;Temp;Humidity;BMP_temperature;BMP_pressure;BME280_temperature;BME280_humidity;BME280_pressure;Samples;Min_cycle;Max_cycle;Signal;HPM_P1;HPM_P2
2022/09/09 00:01:08;;;;;;;74.67;70.27;;;13.00;99.90;;;;;;5010777;28;20635;-76
2022/09/09 00:03:49;;;;;;;45.10;42.50;;;13.00;99.90;;;;;;5011723;28;20200;-76
2022/09/09 00:06:35;;;;;;;13.93;13.13;;;13.10;99.90;;;;;;5010853;28;20176;-76
2022/09/09 00:09:11;;;;;;;10.40;9.80;;;13.10;99.90;;;;;;5010668;28;20851;-76
2022/09/09 00:11:43;;;;;;;8.70;8.00;;;13.00;99.90;;;;;;5010283;28;20270;-76
2022/09/09 00:14:33;;;;;;;10.63;9.93;;;13.10;99.90;;;;;;5010141;28;20215;-75
2022/09/09 00:17:06;;;;;;;7.73;7.27;;;13.10;99.90;;;;;;5013888;28;20231;-76
2022/09/09 00:20:13;;;;;;;8.70;8.10;;;13.00;99.90;;;;;;5012345;28;20191;-78
2022/09/09 00:22:52;;;;;;;8.20;7.47;;;13.00;99.90;;;;;;4972860;28;20596;-77
2022/09/09 00:25:27;;;;;;;10.23;9.23;;;13.00;99.90;;;;;;4996180;28;20191;-75
2022/09/09 00:27:55;;;;;;;7.37;6.67;;;13.00;99.90;;;;;;5006439;28;20262;-75
2022/09/09 00:30:24;;;;;;;6.97;6.37;;;13.00;99.90;;;;;;5007019;28;20189;-75
2022/09/09 00:32:54;;;;;;;14.33;13.47;;;12.90;99.90;;;;;;4997386;28;20200;-75
2022/09/09 00:35:32;;;;;;;11.27;10.70;;;12.90;99.90;;;;;;5010159;28;20179;-75
2022/09/09 00:38:03;;;;;;;13.47;12.53;;;12.90;99.90;;;;;;5010564;28;20213;-76
2022/09/09 00:40:35;;;;;;;11.43;10.40;;;12.90;99.90;;;;;;5010319;28;20301;-75
2022/09/09 00:43:25;;;;;;;8.30;7.80;;;12.90;99.90;;;;;;5011035;28;20233;-76
2022/09/09 00:46:23;;;;;;;8.83;8.23;;;12.90;99.90;;;;;;5011482;28;20180;-75
2022/09/09 00:49:09;;;;;;;7.53;6.93;;;12.90;99.90;;;;;;5009859;28;20184;-77
2022/09/09 00:52:08;;;;;;;6.10;5.70;;;12.90;99.90;;;;;;5011080;28;20670;-75
2022/09/09 00:54:55;;;;;;;9.03;8.37;;;13.00;99.90;;;;;;5010154;28;20219;-75
2022/09/09 00:57:33;;;;;;;8.03;7.53;;;13.00;99.90;;;;;;5008718;28;20187;-75
2022/09/09 01:00:22;;;;;;;6.73;6.10;;;13.10;99.90;;;;;;5010891;28;20187;-76
2022/09/09 01:03:06;;;;;;;12.00;11.13;;;13.10;99.90;;;;;;5009686;28;20257;-76
2022/09/09 01:05:32;;;;;;;16.00;14.80;;;13.20;99.90;;;;;;5010188;28;20323;-76
2022/09/09 01:08:02;;;;;;;9.97;9.27;;;13.20;99.90;;;;;;5013047;28;20190;-75
2022/09/09 01:10:45;;;;;;;10.70;10.00;;;13.20;99.90;;;;;;5013693;28;20187;-75
2022/09/09 01:13:41;;;;;;;6.63;6.23;;;13.20;99.90;;;;;;5014288;28;20195;-76
2022/09/09 01:16:11;;;;;;;9.70;9.10;;;13.20;99.90;;;;;;4995255;28;20602;-75
2022/09/09 01:18:44;;;;;;;6.00;5.60;;;13.30;99.90;;;;;;4994619;28;20185;-76
2022/09/09 01:21:51;;;;;;;6.20;5.80;;;13.30;99.90;;;;;;4994135;28;20219;-75
2022/09/09 01:24:52;;;;;;;6.50;6.00;;;13.40;99.90;;;;;;4994294;28;20804;-75
2022/09/09 01:27:19;;;;;;;7.20;6.50;;;13.40;99.90;;;;;;4965760;28;20188;-76
2022/09/09 01:29:46;;;;;;;6.13;5.60;;;13.40;99.90;;;;;;5010263;28;20180;-76
2022/09/09 01:32:40;;;;;;;6.53;6.13;;;13.40;99.90;;;;;;5010221;28;20545;-76
2022/09/09 01:35:10;;;;;;;7.53;7.07;;;13.40;99.90;;;;;;4993895;28;20191;-76
2022/09/09 01:37:36;;;;;;;8.50;7.67;;;13.40;99.90;;;;;;4993115;28;20181;-76
2022/09/09 01:40:03;;;;;;;7.57;6.97;;;13.40;99.90;;;;;;4995099;28;20723;-76
2022/09/09 01:42:28;;;;;;;8.43;7.83;;;13.40;99.90;;;;;;4993713;28;20188;-76
2022/09/09 01:44:55;;;;;;;6.83;6.27;;;13.30;99.90;;;;;;5014196;28;20180;-76
2022/09/09 01:47:20;;;;;;;7.77;7.07;;;13.20;99.90;;;;;;5016235;28;20183;-76
2022/09/09 01:49:46;;;;;;;7.63;7.13;;;13.20;99.90;;;;;;5014179;28;20186;-77
2022/09/09 01:52:12;;;;;;;8.80;8.10;;;13.20;99.90;;;;;;5012722;28;20187;-77
2022/09/09 01:54:38;;;;;;;12.40;11.77;;;13.20;99.90;;;;;;5014060;28;20219;-75
2022/09/09 01:57:15;;;;;;;11.60;10.90;;;13.20;99.90;;;;;;5013661;28;20207;-76
2022/09/09 02:00:11;;;;;;;12.07;11.47;;;13.20;99.90;;;;;;5012204;28;20584;-76
2022/09/09 02:03:11;;;;;;;8.80;8.20;;;13.30;99.90;;;;;;5013761;28;20274;-76
2022/09/09 02:05:48;;;;;;;5.47;5.20;;;13.30;99.90;;;;;;5009925;28;20180;-76
2022/09/09 02:08:30;;;;;;;6.00;5.60;;;13.30;99.90;;;;;;4992474;28;20176;-76
2022/09/09 02:11:05;;;;;;;7.13;6.43;;;13.20;99.90;;;;;;4994150;28;20203;-76
2022/09/09 02:13:35;;;;;;;16.47;15.57;;;13.10;99.90;;;;;;5001864;28;20761;-76
2022/09/09 02:16:28;;;;;;;17.57;16.57;;;13.10;99.90;;;;;;5012526;28;20207;-76
2022/09/09 02:19:25;;;;;;;9.47;8.80;;;13.00;99.90;;;;;;5011783;28;20652;-76
2022/09/09 02:21:55;;;;;;;9.80;9.20;;;13.00;99.90;;;;;;5012396;28;20214;-76
2022/09/09 02:24:22;;;;;;;8.63;7.83;;;13.00;99.90;;;;;;5013267;28;20199;-75
2022/09/09 02:26:52;;;;;;;10.63;9.83;;;12.90;99.90;;;;;;5013080;28;20722;-76
2022/09/09 02:29:33;;;;;;;17.13;16.03;;;12.90;99.90;;;;;;5013108;28;20191;-75
2022/09/09 02:32:02;;;;;;;17.20;16.07;;;12.80;99.90;;;;;;5013283;28;20195;-76
2022/09/09 02:34:31;;;;;;;21.57;20.40;;;12.80;99.90;;;;;;5012056;28;20203;-76
2022/09/09 02:36:59;;;;;;;25.37;23.87;;;12.80;99.90;;;;;;5011676;28;20180;-76
2022/09/09 02:39:25;;;;;;;27.17;25.80;;;12.80;99.90;;;;;;5013478;28;20214;-77
2022/09/09 02:41:52;;;;;;;26.40;25.00;;;12.70;99.90;;;;;;5013188;28;20557;-76
2022/09/09 02:44:18;;;;;;;27.50;25.77;;;12.80;99.90;;;;;;5011730;28;20586;-76
2022/09/09 02:47:03;;;;;;;29.93;28.23;;;12.80;99.90;;;;;;5012923;28;20266;-76
2022/09/09 02:49:43;;;;;;;18.17;16.97;;;12.80;99.90;;;;;;5012046;28;20656;-77
2022/09/09 02:52:16;;;;;;;16.97;16.10;;;12.70;99.90;;;;;;5011887;28;20253;-77
2022/09/09 02:54:43;;;;;;;15.67;14.87;;;12.70;99.90;;;;;;5012998;28;20292;-76
2022/09/09 02:57:25;;;;;;;16.63;15.70;;;12.60;99.90;;;;;;5012589;28;20187;-76
2022/09/09 02:59:54;;;;;;;26.43;25.03;;;12.60;99.90;;;;;;5013329;28;20302;-77
2022/09/09 03:02:20;;;;;;;20.93;19.67;;;12.50;99.90;;;;;;5012442;28;20211;-76
2022/09/09 03:04:50;;;;;;;22.13;20.90;;;12.50;99.90;;;;;;5011985;28;20227;-76
2022/09/09 03:07:16;;;;;;;31.53;29.70;;;12.50;99.90;;;;;;5011892;28;20190;-76
2022/09/09 03:09:43;;;;;;;35.10;33.20;;;12.50;99.90;;;;;;5011713;28;20182;-76
2022/09/09 03:12:10;;;;;;;40.53;37.73;;;12.50;99.90;;;;;;5011681;28;20192;-76
2022/09/09 03:14:37;;;;;;;35.63;33.90;;;12.40;99.90;;;;;;5013788;28;20207;-76
2022/09/09 03:17:05;;;;;;;32.63;30.27;;;12.30;99.90;;;;;;5013027;28;20239;-76
2022/09/09 03:19:31;;;;;;;27.07;25.37;;;12.30;99.90;;;;;;5012027;28;20186;-76
2022/09/09 03:21:58;;;;;;;17.43;16.33;;;12.30;99.90;;;;;;5012779;28;20270;-76
2022/09/09 03:24:24;;;;;;;29.67;27.97;;;12.30;99.90;;;;;;5012393;28;20206;-76
2022/09/09 03:26:50;;;;;;;22.40;21.13;;;12.20;99.90;;;;;;5010667;28;20230;-76
2022/09/09 03:29:17;;;;;;;17.97;16.83;;;12.20;99.90;;;;;;5011865;28;20184;-76
2022/09/09 03:31:43;;;;;;;19.40;18.20;;;12.10;99.90;;;;;;5012349;28;20186;-76
2022/09/09 03:34:10;;;;;;;16.80;15.63;;;12.10;99.90;;;;;;5011051;28;20207;-76
2022/09/09 03:36:36;;;;;;;31.50;29.70;;;12.20;99.90;;;;;;5011296;28;20192;-76
2022/09/09 03:39:03;;;;;;;15.93;15.03;;;12.30;99.90;;;;;;5011907;28;20190;-77
2022/09/09 03:41:29;;;;;;;9.23;8.63;;;12.30;99.90;;;;;;5012308;28;20214;-76
2022/09/09 03:43:55;;;;;;;11.23;10.53;;;12.40;99.90;;;;;;5010659;28;20215;-76
2022/09/09 03:46:24;;;;;;;25.50;24.23;;;12.50;99.90;;;;;;5010948;28;20740;-76
2022/09/09 03:48:49;;;;;;;36.20;34.40;;;12.50;99.90;;;;;;5010319;28;20640;-76
2022/09/09 03:51:15;;;;;;;31.10;29.47;;;12.50;99.90;;;;;;5012049;28;20197;-76
2022/09/09 03:53:42;;;;;;;32.97;30.57;;;12.50;99.90;;;;;;5011732;28;20567;-76
2022/09/09 03:56:09;;;;;;;34.53;32.80;;;12.60;99.90;;;;;;5012030;28;20187;-76
2022/09/09 03:58:36;;;;;;;34.20;32.50;;;12.50;99.90;;;;;;5011214;28;20197;-76
2022/09/09 04:01:13;;;;;;;40.87;38.60;;;12.60;99.90;;;;;;5012005;28;20213;-77
2022/09/09 04:03:39;;;;;;;32.53;30.83;;;12.50;99.90;;;;;;5009543;28;20570;-76
2022/09/09 04:06:07;;;;;;;28.87;27.13;;;12.50;99.90;;;;;;5011040;28;20202;-76
2022/09/09 04:08:35;;;;;;;30.23;28.40;;;12.60;99.90;;;;;;5010022;28;20207;-76
2022/09/09 04:11:04;;;;;;;24.87;23.57;;;12.60;99.90;;;;;;5011889;28;20562;-76
2022/09/09 04:13:30;;;;;;;19.60;18.30;;;12.70;99.90;;;;;;5005481;28;20322;-76
2022/09/09 04:16:00;;;;;;;36.00;34.03;;;12.80;99.90;;;;;;5011195;28;20274;-76
2022/09/09 04:18:27;;;;;;;9.80;9.13;;;12.90;99.90;;;;;;5029575;28;20592;-77
2022/09/09 04:20:54;;;;;;;13.13;12.27;;;13.00;99.90;;;;;;5029181;28;20198;-76
2022/09/09 04:23:21;;;;;;;55.00;52.03;;;13.00;99.90;;;;;;5029507;28;20239;-76
2022/09/09 04:25:49;;;;;;;69.63;65.97;;;13.10;99.90;;;;;;5010792;28;20194;-76
2022/09/09 04:28:16;;;;;;;33.33;31.63;;;13.10;99.90;;;;;;5008553;28;20183;-76
2022/09/09 04:30:43;;;;;;;40.43;38.27;;;13.10;99.90;;;;;;5011144;28;20210;-76
2022/09/09 04:33:09;;;;;;;63.23;59.87;;;13.10;99.90;;;;;;5011212;28;20211;-76
2022/09/09 04:35:36;;;;;;;65.37;62.07;;;13.10;99.90;;;;;;5009044;28;20191;-76
2022/09/09 04:38:02;;;;;;;25.83;24.23;;;13.10;99.90;;;;;;5010317;28;20183;-77
2022/09/09 04:40:29;;;;;;;26.17;24.73;;;13.10;99.90;;;;;;5009027;28;20664;-70
2022/09/09 04:42:57;;;;;;;12.33;11.53;;;13.20;99.90;;;;;;5009996;28;20222;-72
2022/09/09 04:45:23;;;;;;;12.07;11.23;;;13.10;99.90;;;;;;5010974;28;20213;-72
2022/09/09 04:47:49;;;;;;;12.70;12.00;;;13.10;99.90;;;;;;5010254;28;20180;-72
2022/09/09 04:50:16;;;;;;;22.20;20.60;;;13.10;99.90;;;;;;5008961;28;20225;-72
2022/09/09 04:52:42;;;;;;;22.87;21.73;;;13.20;99.90;;;;;;5009541;28;20202;-72
2022/09/09 04:55:09;;;;;;;36.23;34.03;;;13.10;99.90;;;;;;5010544;28;20253;-72
2022/09/09 04:57:35;;;;;;;33.20;31.20;;;13.10;99.90;;;;;;5009416;28;20226;-72
2022/09/09 05:00:02;;;;;;;48.13;45.40;;;13.10;99.90;;;;;;5010808;28;20214;-72
2022/09/09 05:02:28;;;;;;;36.40;34.33;;;13.10;99.90;;;;;;5010797;28;20567;-72
2022/09/09 05:04:53;;;;;;;34.43;32.67;;;13.20;99.90;;;;;;5009897;28;20191;-72
2022/09/09 05:07:19;;;;;;;11.83;11.23;;;13.20;99.90;;;;;;5009918;28;20184;-72
2022/09/09 05:09:46;;;;;;;12.10;11.00;;;13.30;99.90;;;;;;5009441;28;20209;-72
2022/09/09 05:12:12;;;;;;;12.43;10.97;;;13.20;99.90;;;;;;5010246;28;20188;-72
2022/09/09 05:14:38;;;;;;;11.03;10.10;;;13.30;99.90;;;;;;5009745;28;20203;-72
2022/09/09 05:17:04;;;;;;;12.53;11.70;;;13.30;99.90;;;;;;5009890;28;20214;-72
2022/09/09 05:19:31;;;;;;;10.93;10.10;;;13.50;99.90;;;;;;5008856;28;20211;-72
2022/09/09 05:21:57;;;;;;;7.80;7.10;;;13.60;99.90;;;;;;5009601;28;20587;-72
2022/09/09 05:24:25;;;;;;;8.40;7.70;;;13.70;99.90;;;;;;5009212;28;20286;-72
2022/09/09 05:26:51;;;;;;;7.87;7.27;;;13.70;99.90;;;;;;5007967;28;20201;-71
2022/09/09 05:29:19;;;;;;;10.20;7.53;;;13.70;99.90;;;;;;5009597;28;20176;-72
2022/09/09 05:31:46;;;;;;;12.43;11.63;;;13.60;99.90;;;;;;5008237;28;20755;-72
2022/09/09 05:34:12;;;;;;;11.03;10.27;;;13.60;99.90;;;;;;5009518;28;20236;-72
2022/09/09 05:36:38;;;;;;;16.43;15.60;;;13.60;99.90;;;;;;5010344;28;20215;-72
2022/09/09 05:39:04;;;;;;;19.70;18.30;;;13.80;99.90;;;;;;5009616;28;20184;-72
2022/09/09 05:41:31;;;;;;;8.30;7.70;;;13.90;99.90;;;;;;5010810;28;20208;-72
2022/09/09 05:43:58;;;;;;;7.10;6.60;;;14.00;99.90;;;;;;5010472;28;20234;-71
2022/09/09 05:46:24;;;;;;;9.73;8.77;;;14.10;99.90;;;;;;5010852;28;20191;-75
2022/09/09 05:48:51;;;;;;;12.57;11.63;;;14.20;99.90;;;;;;5009599;28;20267;-72
2022/09/09 05:51:23;;;;;;;6.37;5.87;;;14.30;99.90;;;;;;5009244;28;20283;-72
2022/09/09 05:53:51;;;;;;;5.77;5.27;;;14.40;99.90;;;;;;5013271;28;20200;-72
2022/09/09 05:56:22;;;;;;;8.67;7.80;;;14.40;99.90;;;;;;5014162;28;20683;-72
2022/09/09 05:58:49;;;;;;;13.07;12.10;;;14.40;99.90;;;;;;5012112;28;20210;-72
2022/09/09 06:01:16;;;;;;;10.20;9.43;;;14.60;99.90;;;;;;5014564;28;20732;-72
2022/09/09 06:03:43;;;;;;;70.17;66.17;;;14.80;99.90;;;;;;5013815;28;20226;-72
2022/09/09 06:06:20;;;;;;;28.40;26.63;;;15.10;99.90;;;;;;5007374;28;20833;-72
2022/09/09 06:08:46;;;;;;;8.43;7.67;;;15.30;99.90;;;;;;4993809;28;20192;-72
2022/09/09 06:11:15;;;;;;;20.93;19.67;;;15.50;99.90;;;;;;4994108;28;20192;-72
2022/09/09 06:13:41;;;;;;;18.07;17.03;;;15.60;99.90;;;;;;5008609;28;20201;-72
2022/09/09 06:16:12;;;;;;;6.43;5.97;;;15.70;99.90;;;;;;4993987;28;20564;-72
2022/09/09 06:18:39;;;;;;;8.53;8.03;;;15.80;99.90;;;;;;4994139;28;20551;-73
2022/09/09 06:21:11;;;;;;;8.30;7.80;;;15.80;99.90;;;;;;5000040;28;20242;-73
2022/09/09 06:23:40;;;;;;;8.00;7.60;;;16.00;99.90;;;;;;5010956;28;20199;-72
2022/09/09 06:26:13;;;;;;;9.97;9.17;;;16.10;99.90;;;;;;5010622;28;20265;-73
2022/09/09 06:28:39;;;;;;;13.30;12.50;;;16.20;99.90;;;;;;5012761;28;20191;-72
2022/09/09 06:31:08;;;;;;;11.43;10.53;;;16.20;99.90;;;;;;5012361;28;20180;-71
2022/09/09 06:33:40;;;;;;;10.93;10.03;;;16.20;99.90;;;;;;5013334;28;20218;-70
2022/09/09 06:36:11;;;;;;;10.90;10.00;;;16.30;99.90;;;;;;5012186;28;20813;-73
2022/09/09 06:38:37;;;;;;;11.00;10.20;;;16.30;99.90;;;;;;5012571;28;20187;-71
2022/09/09 06:41:05;;;;;;;10.10;9.50;;;16.50;99.90;;;;;;5012134;28;20207;-71
2022/09/09 06:43:32;;;;;;;15.20;14.37;;;16.60;99.90;;;;;;5013042;28;20697;-71
2022/09/09 06:46:01;;;;;;;33.00;30.73;;;16.70;99.90;;;;;;5005596;28;20250;-71
2022/09/09 06:48:27;;;;;;;39.23;36.97;;;16.80;99.90;;;;;;5007884;28;20192;-71
2022/09/09 06:51:17;;;;;;;36.30;34.30;;;17.00;99.90;;;;;;4996056;28;20268;-72
2022/09/09 06:53:45;;;;;;;32.53;30.63;;;17.40;99.90;;;;;;4992400;28;20204;-70
2022/09/09 06:56:11;;;;;;;52.70;49.90;;;17.80;99.90;;;;;;5012059;28;20215;-71
2022/09/09 06:58:45;;;;;;;46.97;44.43;;;18.10;99.90;;;;;;5012238;28;20594;-71
2022/09/09 07:01:16;;;;;;;28.57;26.83;;;18.20;99.90;;;;;;5011574;28;20207;-71
2022/09/09 07:03:45;;;;;;;15.13;14.30;;;18.20;99.90;;;;;;5012138;28;20231;-71
2022/09/09 07:06:20;;;;;;;13.57;12.57;;;18.30;99.90;;;;;;4996822;28;20175;-71
2022/09/09 07:08:54;;;;;;;12.60;11.77;;;18.70;99.90;;;;;;5011611;28;20557;-71
2022/09/09 07:11:22;;;;;;;10.07;9.47;;;19.20;99.90;;;;;;5012223;28;20213;-71
2022/09/09 07:13:49;;;;;;;16.27;14.83;;;19.60;99.90;;;;;;5012650;28;20257;-71
2022/09/09 07:16:20;;;;;;;20.60;19.20;;;19.70;99.90;;;;;;5011646;28;20678;-70
2022/09/09 07:18:47;;;;;;;25.57;23.83;;;19.70;99.90;;;;;;5010752;28;20190;-74
2022/09/09 07:21:14;;;;;;;63.23;59.80;;;19.80;99.90;;;;;;5011938;28;20254;-71
2022/09/09 07:23:41;;;;;;;92.43;87.87;;;19.90;99.90;;;;;;5009974;28;20618;-72
2022/09/09 07:26:13;;;;;;;136.97;130.03;;;20.10;99.90;;;;;;5012369;28;20266;-72
2022/09/09 07:28:40;;;;;;;150.37;143.03;;;20.10;99.90;;;;;;5011109;28;20187;-72
2022/09/09 07:31:07;;;;;;;74.57;70.63;;;20.40;99.90;;;;;;5011453;28;20187;-72
2022/09/09 07:33:34;;;;;;;16.77;15.87;;;21.20;99.90;;;;;;5011644;28;20633;-73
2022/09/09 07:36:09;;;;;;;17.40;16.30;;;21.70;99.90;;;;;;5012522;28;20183;-73
2022/09/09 07:38:55;;;;;;;6.13;4.77;;;21.60;99.90;;;;;;5011441;28;20187;-74
2022/09/09 07:41:24;;;;;;;6.13;5.83;;;21.60;99.90;;;;;;5012463;28;20672;-72
2022/09/09 07:43:53;;;;;;;6.13;5.73;;;21.80;99.90;;;;;;5009747;28;20212;-73
2022/09/09 07:46:21;;;;;;;7.77;7.17;;;21.90;99.90;;;;;;5011928;28;20180;-72
2022/09/09 07:48:52;;;;;;;6.10;5.23;;;21.60;99.90;;;;;;5009908;28;20186;-72
2022/09/09 07:51:22;;;;;;;8.37;7.57;;;21.60;99.90;;;;;;5012044;28;20192;-73
2022/09/09 07:53:51;;;;;;;6.90;6.30;;;21.40;99.90;;;;;;5011866;28;20741;-72
2022/09/09 07:56:18;;;;;;;8.37;7.77;;;21.50;99.90;;;;;;5011666;28;20180;-72
2022/09/09 07:58:46;;;;;;;12.43;11.60;;;21.60;99.90;;;;;;5010299;28;20190;-73
2022/09/09 08:01:17;;;;;;;12.53;11.93;;;21.40;99.90;;;;;;5011770;28;20683;-72
2022/09/09 08:03:45;;;;;;;10.13;9.43;;;21.10;99.90;;;;;;5011278;28;20206;-72
2022/09/09 08:06:13;;;;;;;11.20;10.60;;;20.90;99.90;;;;;;5010902;28;20582;-73
2022/09/09 08:08:41;;;;;;;16.30;15.30;;;20.90;99.90;;;;;;5009418;28;20182;-73
2022/09/09 08:11:11;;;;;;;10.57;9.83;;;21.10;99.90;;;;;;5010613;28;20186;-72
2022/09/09 08:13:38;;;;;;;10.73;10.13;;;21.10;99.90;;;;;;5011826;28;20209;-72
2022/09/09 08:16:08;;;;;;;25.07;23.87;;;21.10;99.90;;;;;;5009966;28;20183;-72
2022/09/09 08:18:34;;;;;;;12.77;11.87;;;21.30;99.90;;;;;;5010643;28;20509;-73
2022/09/09 08:21:11;;;;;;;10.07;9.40;;;21.70;99.90;;;;;;5010734;28;20234;-70
2022/09/09 08:23:41;;;;;;;7.00;6.50;;;22.60;99.90;;;;;;5009935;28;20758;-76
2022/09/09 08:26:16;;;;;;;37.55;35.60;;;23.40;99.90;;;;;;5010153;28;20207;-73
2022/09/09 08:28:43;;;;;;;73.18;69.35;;;23.90;99.90;;;;;;5010588;28;20218;-71
2022/09/09 08:31:12;;;;;;;47.78;45.20;;;24.10;99.90;;;;;;5009854;28;20215;-72
2022/09/09 08:33:38;;;;;;;15.07;14.20;;;24.10;99.90;;;;;;5011200;28;20691;-71
2022/09/09 08:36:06;;;;;;;21.13;19.90;;;23.80;99.90;;;;;;5011101;28;20207;-71
2022/09/09 08:38:33;;;;;;;13.20;12.48;;;23.90;99.90;;;;;;5009075;28;20274;-72
2022/09/09 08:41:11;;;;;;;12.15;11.15;;;24.40;99.90;;;;;;5010678;28;20715;-71
2022/09/09 08:43:37;;;;;;;5.10;4.25;;;25.40;99.90;;;;;;5010033;28;20274;-72
2022/09/09 08:46:14;;;;;;;5.47;5.10;;;24.90;99.90;;;;;;5009708;28;20661;-72
2022/09/09 08:49:01;;;;;;;4.20;3.85;;;24.30;99.90;;;;;;5010245;28;20302;-72
2022/09/09 08:51:30;;;;;;;4.57;4.18;;;24.30;99.90;;;;;;5010851;28;20183;-72
2022/09/09 08:54:00;;;;;;;6.30;4.30;;;24.10;99.90;;;;;;5010713;28;20253;-71
2022/09/09 08:56:31;;;;;;;6.43;5.68;;;23.90;99.90;;;;;;5010716;28;20188;-71
2022/09/09 08:59:01;;;;;;;4.82;4.43;;;24.40;99.90;;;;;;5009491;28;20183;-72
2022/09/09 09:01:42;;;;;;;6.10;5.57;;;25.10;99.90;;;;;;4997568;28;20220;-71
2022/09/09 09:04:31;;;;;;;6.55;5.30;;;25.20;99.90;;;;;;5005629;28;20208;-72
2022/09/09 09:07:15;;;;;;;5.68;4.25;;;24.90;99.90;;;;;;4998866;28;20598;-72
2022/09/09 09:10:12;;;;;;;4.85;4.35;;;24.10;99.90;;;;;;5010365;28;20236;-72
2022/09/09 09:12:42;;;;;;;5.90;5.38;;;24.20;99.90;;;;;;5009002;28;20937;-73
2022/09/09 09:15:19;;;;;;;11.02;7.05;;;23.70;99.90;;;;;;5009929;28;20188;-73
2022/09/09 09:17:45;;;;;;;8.75;6.45;;;24.00;99.90;;;;;;5009964;28;20656;-72
2022/09/09 09:20:14;;;;;;;15.98;12.40;;;24.70;99.90;;;;;;5009948;28;20184;-73
2022/09/09 09:23:01;;;;;;;10.48;8.75;;;25.70;99.90;;;;;;5009699;28;20180;-72
2022/09/09 09:25:39;;;;;;;7.40;5.68;;;26.10;99.90;;;;;;5010100;28;20664;-73
2022/09/09 09:28:18;;;;;;;5.63;5.20;;;26.20;99.90;;;;;;5012003;28;20555;-72
2022/09/09 09:30:57;;;;;;;3.35;3.03;;;26.50;99.90;;;;;;5013489;28;20184;-72
2022/09/09 09:33:33;;;;;;;5.22;4.78;;;26.80;99.90;;;;;;5014284;28;20273;-72
2022/09/09 09:35:59;;;;;;;4.97;4.53;;;27.10;99.90;;;;;;5014121;28;20201;-72
2022/09/09 09:38:27;;;;;;;4.25;3.30;;;26.80;99.90;;;;;;5012560;28;20192;-71
2022/09/09 09:41:00;;;;;;;3.55;2.80;;;26.90;99.80;;;;;;5012124;28;20251;-72
2022/09/09 09:43:36;;;;;;;3.55;3.25;;;26.90;98.10;;;;;;5013287;28;20215;-73
2022/09/09 09:46:17;;;;;;;3.92;3.08;;;26.70;99.20;;;;;;5013411;28;20254;-72
2022/09/09 09:48:45;;;;;;;3.13;2.80;;;27.40;98.30;;;;;;5013501;28;20180;-72
2022/09/09 09:51:15;;;;;;;8.30;5.00;;;27.40;96.60;;;;;;5012758;28;20206;-73
2022/09/09 09:53:41;;;;;;;5.72;5.22;;;27.40;96.10;;;;;;5012967;28;20204;-74
2022/09/09 09:56:11;;;;;;;7.18;6.68;;;27.40;95.10;;;;;;5013947;28;20691;-74
2022/09/09 09:58:57;;;;;;;10.60;9.85;;;27.60;95.20;;;;;;5013229;28;20604;-73
2022/09/09 10:01:29;;;;;;;8.88;8.43;;;27.60;94.90;;;;;;5011204;28;20219;-73
2022/09/09 10:03:59;;;;;;;14.57;13.57;;;28.00;93.70;;;;;;5013642;28;20228;-73
2022/09/09 10:06:31;;;;;;;20.92;19.63;;;28.20;94.10;;;;;;5013211;28;20342;-72
2022/09/09 10:08:56;;;;;;;33.78;31.75;;;28.20;93.10;;;;;;5012475;28;20180;-72
2022/09/09 10:11:52;;;;;;;40.17;38.15;;;27.40;91.30;;;;;;5013418;28;20669;-71
2022/09/09 10:14:33;;;;;;;9.45;8.77;;;25.40;92.40;;;;;;5012924;28;20249;-71
2022/09/09 10:17:31;;;;;;;5.47;5.22;;;24.30;94.60;;;;;;5012566;28;20188;-72
2022/09/09 10:20:19;;;;;;;5.32;4.93;;;24.80;93.90;;;;;;5013109;28;20195;-73
2022/09/09 10:22:58;;;;;;;10.32;9.73;;;25.70;93.40;;;;;;5014805;28;20187;-73
2022/09/09 10:25:35;;;;;;;22.38;21.10;;;26.90;90.60;;;;;;5015362;28;20191;-72
2022/09/09 10:28:47;;;;;;;27.10;25.75;;;27.00;86.60;;;;;;5012914;28;20270;-72
2022/09/09 10:31:23;;;;;;;15.57;14.75;;;27.80;85.00;;;;;;4990836;28;20206;-73
2022/09/09 10:34:20;;;;;;;9.65;9.23;;;28.40;81.60;;;;;;5011959;28;20199;-72
2022/09/09 10:36:50;;;;;;;14.30;13.55;;;28.60;79.40;;;;;;5010768;28;20210;-72
2022/09/09 10:39:25;;;;;;;16.52;15.50;;;29.00;79.50;;;;;;5011843;28;20954;-72
2022/09/09 10:42:12;;;;;;;7.75;7.25;;;29.20;78.60;;;;;;5012804;28;20292;-73
2022/09/09 10:44:51;;;;;;;4.10;3.08;;;29.60;73.90;;;;;;5012072;28;20215;-72
2022/09/09 10:47:49;;;;;;;3.55;3.20;;;29.00;75.30;;;;;;5012264;28;20176;-71
2022/09/09 10:50:36;;;;;;;3.70;3.50;;;29.20;75.30;;;;;;5011122;28;20222;-72
2022/09/09 10:53:08;;;;;;;5.43;5.10;;;28.40;75.40;;;;;;5011715;28;20199;-71
2022/09/09 10:55:40;;;;;;;11.63;10.70;;;27.60;77.70;;;;;;5010799;28;20183;-69
2022/09/09 10:58:14;;;;;;;22.30;21.10;;;27.20;80.60;;;;;;5011775;28;20648;-70
2022/09/09 11:00:47;;;;;;;12.73;11.95;;;28.00;81.50;;;;;;5012061;28;20231;-67
2022/09/09 11:03:29;;;;;;;15.30;14.40;;;28.10;77.70;;;;;;5012895;28;20195;-69
2022/09/09 11:06:04;;;;;;;10.18;9.60;;;28.10;80.00;;;;;;4999382;28;20183;-69
2022/09/09 11:08:33;;;;;;;5.68;5.00;;;29.00;77.90;;;;;;5011603;28;20176;-70
2022/09/09 11:11:17;;;;;;;3.78;3.58;;;29.60;76.30;;;;;;5012491;28;20184;-71
2022/09/09 11:13:54;;;;;;;5.60;4.28;;;29.50;72.20;;;;;;5010162;28;20220;-71
2022/09/09 11:16:29;;;;;;;4.93;4.03;;;29.40;74.30;;;;;;5012610;28;20187;-77
2022/09/09 11:19:23;;;;;;;5.70;5.40;;;29.80;71.00;;;;;;5010791;28;20183;-79
2022/09/09 11:21:51;;;;;;;3.80;3.58;;;28.70;71.90;;;;;;5012406;28;20208;-77
2022/09/09 11:24:23;;;;;;;5.18;4.88;;;28.70;74.10;;;;;;5013296;28;20196;-77
2022/09/09 11:27:07;;;;;;;5.93;5.60;;;29.70;72.80;;;;;;5012535;28;20194;-78
2022/09/09 11:29:54;;;;;;;8.70;7.75;;;29.40;69.50;;;;;;5012860;28;20211;-78
2022/09/09 11:32:22;;;;;;;4.97;4.53;;;28.60;71.90;;;;;;5014541;28;20180;-78
2022/09/09 11:35:06;;;;;;;7.38;6.75;;;29.60;72.40;;;;;;5013704;28;20200;-77
2022/09/09 11:38:01;;;;;;;10.32;9.70;;;31.00;70.40;;;;;;5010043;28;20254;-78
2022/09/09 11:40:30;;;;;;;7.47;6.82;;;29.90;68.50;;;;;;5011082;28;20187;-77
2022/09/09 11:43:05;;;;;;;7.70;4.38;;;28.00;73.00;;;;;;5011641;28;20258;-72
2022/09/09 11:45:35;;;;;;;7.60;7.07;;;27.20;76.60;;;;;;5010247;28;20225;-72
2022/09/09 11:48:02;;;;;;;21.08;20.08;;;26.20;79.40;;;;;;5009356;28;20187;-73
2022/09/09 11:50:33;;;;;;;26.50;24.98;;;25.40;82.60;;;;;;5013194;28;20180;-71
2022/09/09 11:53:22;;;;;;;32.15;30.25;;;24.30;85.70;;;;;;5014911;28;20196;-72
2022/09/09 11:56:01;;;;;;;21.77;19.52;;;23.50;88.80;;;;;;5013237;28;20637;-72
2022/09/09 11:58:32;;;;;;;16.02;12.60;;;23.00;91.10;;;;;;5011206;28;20179;-75
2022/09/09 12:00:58;;;;;;;9.45;8.45;;;22.80;91.90;;;;;;5013252;28;20808;-72
2022/09/09 12:03:33;;;;;;;16.45;15.07;;;22.40;93.40;;;;;;5013153;28;20191;-71
2022/09/09 12:06:00;;;;;;;48.90;46.00;;;21.40;99.90;;;;;;5011714;28;20554;-73
2022/09/09 12:08:28;;;;;;;46.07;43.53;;;19.90;99.90;;;;;;5010674;28;20184;-71
2022/09/09 12:10:57;;;;;;;76.90;72.87;;;18.70;99.90;;;;;;5011323;28;20183;-72
2022/09/09 12:13:26;;;;;;;123.03;116.70;;;18.10;99.90;;;;;;5011244;28;20678;-73
2022/09/09 12:15:54;;;;;;;88.27;83.63;;;17.70;99.90;;;;;;5012819;28;20237;-73
2022/09/09 12:18:25;;;;;;;78.03;73.93;;;17.70;99.90;;;;;;5019069;28;20188;-72
2022/09/09 12:21:21;;;;;;;47.00;44.57;;;18.10;99.90;;;;;;5012657;28;20285;-72
2022/09/09 12:23:53;;;;;;;38.73;36.53;;;20.00;99.90;;;;;;5012803;28;20247;-73
2022/09/09 12:26:30;;;;;;;10.87;10.23;;;22.60;99.90;;;;;;5009285;28;20186;-73
2022/09/09 12:29:09;;;;;;;12.77;12.00;;;24.60;99.90;;;;;;5008398;28;20183;-71
2022/09/09 12:31:56;;;;;;;35.67;33.90;;;26.30;99.90;;;;;;5010966;28;20175;-72
2022/09/09 12:34:41;;;;;;;16.65;15.82;;;27.20;99.90;;;;;;5010983;28;20261;-71
2022/09/09 12:37:24;;;;;;;102.53;97.15;;;28.00;99.90;;;;;;5008680;28;20253;-74
2022/09/09 12:40:03;;;;;;;5.03;4.53;;;29.00;99.90;;;;;;5011066;28;20184;-72
2022/09/09 12:42:32;;;;;;;7.03;5.70;;;30.10;98.90;;;;;;5007893;28;20256;-72
2022/09/09 12:45:16;;;;;;;5.15;3.88;;;29.80;97.50;;;;;;5009310;28;20180;-72
2022/09/09 12:47:58;;;;;;;3.00;2.80;;;29.90;98.40;;;;;;5009832;28;20217;-72
2022/09/09 12:50:26;;;;;;;2.92;2.72;;;29.80;95.90;;;;;;5010544;28;20554;-72
2022/09/09 12:52:56;;;;;;;3.45;3.10;;;30.30;93.50;;;;;;5009794;28;20227;-72
2022/09/09 12:55:29;;;;;;;16.77;15.77;;;31.20;91.30;;;;;;5010667;28;20245;-73
2022/09/09 12:57:56;;;;;;;17.48;16.23;;;31.40;85.40;;;;;;5010017;28;20240;-72
2022/09/09 13:00:24;;;;;;;26.42;24.98;;;31.50;84.00;;;;;;5012298;28;20207;-72
2022/09/09 13:02:56;;;;;;;40.80;38.63;;;31.30;83.50;;;;;;5011016;28;20302;-71
2022/09/09 13:05:36;;;;;;;37.97;36.03;;;31.70;81.70;;;;;;5014091;28;20213;-71